Pagina principale
METAR-TAF:

METAR-TAF

Aeroporti :

Inukjuak, Québec, Canada

latitudine: 58-28N, longitudine: 078-05W, altezza: 25 m

Osservazione

Il bollettino è stato emesso 28 minuti fa, alle 12:00 UTC
Vento 11 kt da nord/nord-est
Temperature 7°C
Umidità 57%
Pressione 1007 hPa
Visibilità: 14.5 km
Cielo coperto ad un'altezza di 8600 ft

METAR: CYPH 271200Z AUTO 02011KT 9SM OVC086 07/M01 A2974 RMK SLP074

Ora: 08:28 (12:28 UTC)

Previsione

Il bollettino è stato emesso 48 minuti fa, alle 11:40 UTC
Previsione valida dal 27 alle 12 UTC al 27 alle 24 UTC
Vento 5 kt da nord/nord-est
Visibilità: 10 km
Nuvoloso ad un'altezza di 8000 ft
Evoluzione graduale
dal 27 alle 12 UTC al 27 alle 14 UTC
Vento 10 kt da nord/nord-est
A partire da 27 alle 1800 UTC
Vento 15 kt da nord
Visibilità: 10 km
Cielo sereno

TAF: CYPH 271140Z 2712/2724 02005KT P6SM BKN080 BECMG 2712/2714 02010KT FM271800 01015KT P6SM SKC RMK FCST BASED ON AUTO OBS. NXT FCST BY 271800Z

Osservazioni e previsioni meteorologiche di più di 4000 aeroporti (messaggi METAR e TAF).

Le stazioni disponibili sono rappresentate dai dischi gialli e rossi sulla carta.

Puntare il mouse per vedere il nome della stazione.

Clicca sopra per visualizzare le osservazioni e previsioni meteorologiche.

Per cambiare la mappa : fare clic sui pulsanti verdi con una croce nera per ingrandire, il pulsante verde con un trattino per diminuire, o sulla freccia verde per le mappe adiacenti.


METAR-TAF: